createdAt,value
2022-11-11T00:01:01.059Z,33.57
2022-11-11T00:03:28.607Z,33.53
2022-11-11T00:05:56.008Z,32.90
2022-11-11T00:08:23.180Z,34.20
2022-11-11T00:10:50.310Z,33.73
2022-11-11T00:13:17.480Z,32.07
2022-11-11T00:15:44.677Z,31.80
2022-11-11T00:18:31.346Z,30.73
2022-11-11T00:21:17.847Z,27.50
2022-11-11T00:24:03.626Z,27.33
2022-11-11T00:26:39.668Z,26.30
2022-11-11T00:29:07.325Z,26.93
2022-11-11T00:31:35.772Z,26.30
2022-11-11T00:34:02.942Z,29.60
2022-11-11T00:36:30.204Z,25.03
2022-11-11T00:38:58.334Z,25.80
2022-11-11T00:41:27.310Z,27.40
2022-11-11T00:43:54.530Z,26.33
2022-11-11T00:46:40.486Z,27.67
2022-11-11T00:49:26.883Z,24.83
2022-11-11T00:51:54.046Z,26.53
2022-11-11T00:54:21.188Z,26.43
2022-11-11T00:56:48.317Z,27.40
2022-11-11T00:59:15.533Z,27.03
2022-11-11T01:01:42.716Z,27.80
2022-11-11T01:04:09.949Z,29.77
2022-11-11T01:06:37.699Z,32.10
2022-11-11T01:09:08.178Z,29.00
2022-11-11T01:11:35.415Z,26.43
2022-11-11T01:14:02.621Z,27.33
2022-11-11T01:16:29.838Z,26.23
2022-11-11T01:18:56.931Z,33.87
2022-11-11T01:21:24.604Z,34.00
2022-11-11T01:23:52.677Z,31.20
2022-11-11T01:26:23.587Z,29.20
2022-11-11T01:28:53.705Z,38.47
2022-11-11T01:31:21.349Z,44.73
2022-11-11T01:33:49.067Z,43.83
2022-11-11T01:36:23.663Z,47.83
2022-11-11T01:38:51.432Z,39.03
2022-11-11T01:41:35.589Z,39.30
2022-11-11T01:44:11.913Z,36.77
2022-11-11T01:46:49.735Z,35.13
2022-11-11T01:49:35.022Z,34.60
2022-11-11T01:52:11.219Z,31.63
2022-11-11T01:54:45.075Z,25.27
2022-11-11T01:57:12.301Z,27.33
2022-11-11T01:59:39.666Z,25.07
2022-11-11T02:02:08.826Z,26.87
2022-11-11T02:04:54.968Z,28.57
2022-11-11T02:07:22.158Z,26.73
2022-11-11T02:09:49.560Z,22.17
2022-11-11T02:12:35.187Z,25.00
2022-11-11T02:15:02.301Z,27.17
2022-11-11T02:17:29.736Z,24.50
2022-11-11T02:19:57.894Z,25.47
2022-11-11T02:22:27.898Z,26.67
2022-11-11T02:24:55.246Z,26.40
2022-11-11T02:27:22.443Z,24.33
2022-11-11T02:29:50.579Z,25.70
2022-11-11T02:32:17.703Z,22.23
2022-11-11T02:34:44.864Z,19.93
2022-11-11T02:37:11.982Z,18.90
2022-11-11T02:40:02.065Z,19.97
2022-11-11T02:42:28.557Z,17.67
2022-11-11T02:44:58.949Z,16.43
2022-11-11T02:47:27.056Z,17.63
2022-11-11T02:49:54.594Z,20.17
2022-11-11T02:52:21.779Z,19.53
2022-11-11T02:54:49.444Z,21.57
2022-11-11T02:57:17.050Z,20.20
2022-11-11T02:59:44.388Z,22.63
2022-11-11T03:02:11.623Z,23.73
2022-11-11T03:04:39.172Z,23.87
2022-11-11T03:07:06.721Z,23.07
2022-11-11T03:09:34.260Z,24.93
2022-11-11T03:12:01.640Z,22.57
2022-11-11T03:14:28.881Z,25.10
2022-11-11T03:17:14.996Z,25.07
2022-11-11T03:19:42.141Z,29.83
2022-11-11T03:25:14.876Z,28.30
2022-11-11T03:27:42.234Z,25.13
2022-11-11T03:30:09.537Z,27.33
2022-11-11T03:32:36.657Z,22.83
2022-11-11T03:35:03.769Z,20.03
2022-11-11T03:37:49.374Z,20.30
2022-11-11T03:40:16.525Z,20.77
2022-11-11T03:42:44.006Z,19.27
2022-11-11T03:45:11.182Z,20.00
2022-11-11T03:47:38.251Z,21.10
2022-11-11T03:50:05.488Z,22.87
2022-11-11T03:52:32.646Z,21.90
2022-11-11T03:54:59.714Z,26.27
2022-11-11T03:57:33.007Z,25.23
2022-11-11T04:00:00.173Z,25.83
2022-11-11T04:02:46.131Z,27.37
2022-11-11T04:05:31.947Z,22.63
2022-11-11T04:08:17.880Z,24.55
2022-11-11T04:10:44.962Z,27.10
2022-11-11T04:13:30.505Z,33.00
2022-11-11T04:16:06.823Z,25.40
2022-11-11T04:18:53.165Z,19.80
2022-11-11T04:21:38.958Z,18.90
2022-11-11T04:24:25.272Z,17.83
2022-11-11T04:26:52.364Z,16.20
2022-11-11T04:29:28.430Z,23.27
2022-11-11T04:32:34.440Z,23.30
2022-11-11T04:35:02.239Z,23.57
2022-11-11T04:37:31.349Z,22.53
2022-11-11T04:40:17.227Z,18.43
2022-11-11T04:42:44.327Z,16.37
2022-11-11T04:45:30.669Z,16.37
2022-11-11T04:48:10.454Z,15.17
2022-11-11T04:50:38.350Z,16.47
2022-11-11T04:53:06.176Z,15.80
2022-11-11T04:55:51.886Z,16.87
2022-11-11T04:58:19.924Z,18.00
2022-11-11T05:00:47.089Z,14.77
2022-11-11T05:03:18.484Z,13.50
2022-11-11T05:06:08.032Z,12.57
2022-11-11T05:08:54.543Z,12.73
2022-11-11T05:11:22.132Z,12.20
2022-11-11T05:14:07.743Z,11.40
2022-11-11T05:16:54.155Z,11.10
2022-11-11T05:19:40.147Z,10.40
2022-11-11T05:22:13.220Z,10.63
2022-11-11T05:24:59.183Z,11.73
2022-11-11T05:27:26.792Z,11.73
2022-11-11T05:29:53.882Z,11.20
2022-11-11T05:32:21.232Z,11.27
2022-11-11T05:34:48.336Z,13.33
2022-11-11T05:37:15.455Z,14.20
2022-11-11T05:39:42.722Z,15.57
2022-11-11T05:42:09.918Z,13.47
2022-11-11T05:44:37.046Z,16.20
2022-11-11T05:47:04.295Z,14.93
2022-11-11T05:49:31.401Z,15.73
2022-11-11T05:51:58.586Z,14.13
2022-11-11T05:54:25.757Z,15.00
2022-11-11T05:56:52.885Z,14.77
2022-11-11T05:59:20.023Z,17.00
2022-11-11T06:01:47.230Z,16.43
2022-11-11T06:04:18.240Z,19.53
2022-11-11T06:06:45.660Z,16.50
2022-11-11T06:09:12.818Z,16.17
2022-11-11T06:11:39.917Z,16.30
2022-11-11T06:14:07.067Z,26.20
2022-11-11T06:16:34.217Z,24.67
2022-11-11T06:19:04.010Z,16.83
2022-11-11T06:21:32.754Z,18.13
2022-11-11T06:23:59.872Z,18.30
2022-11-11T06:26:26.991Z,18.13
2022-11-11T06:28:54.985Z,25.00
2022-11-11T06:31:22.855Z,22.10
2022-11-11T06:33:49.925Z,24.90
2022-11-11T06:36:17.905Z,25.17
2022-11-11T06:38:45.047Z,25.57
2022-11-11T06:41:12.866Z,26.33
2022-11-11T06:43:43.329Z,28.97
2022-11-11T06:46:25.805Z,24.27
2022-11-11T06:48:52.911Z,23.43
2022-11-11T06:51:19.992Z,25.97
2022-11-11T06:53:47.119Z,25.97
2022-11-11T06:56:14.275Z,21.87
2022-11-11T06:58:41.444Z,24.23
2022-11-11T07:01:09.312Z,22.00
2022-11-11T07:03:36.595Z,20.33
2022-11-11T07:06:04.336Z,19.33
2022-11-11T07:08:31.514Z,18.75
2022-11-11T07:10:58.637Z,27.60
2022-11-11T07:13:25.789Z,39.00
2022-11-11T07:15:52.905Z,40.23
2022-11-11T07:18:20.037Z,37.57
2022-11-11T07:20:47.183Z,50.35
2022-11-11T07:23:14.374Z,58.67
2022-11-11T07:25:41.476Z,87.88
2022-11-11T07:28:08.566Z,81.72
2022-11-11T07:30:35.687Z,75.13
2022-11-11T07:33:02.794Z,76.83
2022-11-11T07:35:29.869Z,80.72
2022-11-11T07:37:57.056Z,105.00
2022-11-11T07:40:24.121Z,85.40
2022-11-11T07:42:51.207Z,79.03
2022-11-11T07:45:18.762Z,70.50
2022-11-11T07:47:45.935Z,75.57
2022-11-11T07:50:13.102Z,71.68
2022-11-11T07:52:40.813Z,72.70
2022-11-11T07:55:08.824Z,68.38
2022-11-11T07:57:36.052Z,67.32
2022-11-11T08:00:03.297Z,57.38
2022-11-11T08:02:30.393Z,58.88
2022-11-11T08:04:57.473Z,57.13
2022-11-11T08:07:24.766Z,59.22
2022-11-11T08:09:52.224Z,59.55
2022-11-11T08:12:37.725Z,53.95
2022-11-11T08:15:07.136Z,41.80
2022-11-11T08:17:39.358Z,46.53
2022-11-11T08:20:09.586Z,38.17
2022-11-11T08:22:37.646Z,31.05
2022-11-11T08:25:05.813Z,32.92
2022-11-11T08:27:33.308Z,33.30
2022-11-11T08:30:00.465Z,33.20
2022-11-11T08:32:27.593Z,29.00
2022-11-11T08:34:54.674Z,24.27
2022-11-11T08:37:21.754Z,20.15
2022-11-11T08:39:48.881Z,18.77
2022-11-11T08:42:15.999Z,20.17
2022-11-11T08:44:43.132Z,35.95
2022-11-11T08:47:10.288Z,30.13
2022-11-11T08:49:37.358Z,33.72
2022-11-11T08:52:04.468Z,21.90
2022-11-11T08:54:31.634Z,20.38
2022-11-11T08:56:58.710Z,24.95
2022-11-11T08:59:25.797Z,17.85
2022-11-11T09:01:52.906Z,18.13
2022-11-11T09:04:43.564Z,8.20
2022-11-11T09:07:10.615Z,5.70
2022-11-11T09:09:37.768Z,6.43
2022-11-11T09:12:04.948Z,6.95
2022-11-11T09:14:32.117Z,10.30
2022-11-11T09:16:59.251Z,5.78
2022-11-11T09:19:26.358Z,11.77
2022-11-11T09:21:53.559Z,5.00
2022-11-11T09:24:20.642Z,5.88
2022-11-11T09:26:49.249Z,5.50
2022-11-11T09:29:16.600Z,6.00
2022-11-11T09:31:45.392Z,9.65
2022-11-11T09:34:13.366Z,6.20
2022-11-11T09:36:40.477Z,6.35
2022-11-11T09:39:07.628Z,10.57
2022-11-11T09:41:34.707Z,8.70
2022-11-11T09:44:02.111Z,5.15
2022-11-11T09:46:41.010Z,13.23
2022-11-11T09:49:26.997Z,12.50
2022-11-11T09:51:56.077Z,10.95
2022-11-11T09:54:36.820Z,6.25
2022-11-11T09:57:05.186Z,5.20
2022-11-11T09:59:35.763Z,11.40
2022-11-11T10:02:02.861Z,7.30
2022-11-11T10:04:35.704Z,5.95
2022-11-11T10:07:12.914Z,7.82
2022-11-11T10:09:42.541Z,8.35
2022-11-11T10:12:13.408Z,7.15
2022-11-11T10:14:41.547Z,4.78
2022-11-11T10:17:27.410Z,8.57
2022-11-11T10:19:57.484Z,16.20
2022-11-11T10:22:36.945Z,5.28
2022-11-11T10:25:13.119Z,5.72
2022-11-11T10:27:49.418Z,7.13
2022-11-11T10:30:19.593Z,4.40
2022-11-11T10:32:46.923Z,4.95
2022-11-11T10:35:16.825Z,6.15
2022-11-11T10:37:45.225Z,5.07
2022-11-11T10:40:15.346Z,4.60
2022-11-11T10:42:44.164Z,6.88
2022-11-11T10:45:29.926Z,7.22
2022-11-11T10:48:02.968Z,6.22
2022-11-11T10:50:31.247Z,7.75
2022-11-11T10:53:03.882Z,6.28
2022-11-11T10:55:35.985Z,5.00
2022-11-11T10:58:08.659Z,3.90
2022-11-11T11:00:39.687Z,4.30
2022-11-11T11:03:31.784Z,4.38
2022-11-11T11:06:00.188Z,5.13
2022-11-11T11:08:28.424Z,8.73
2022-11-11T11:11:02.548Z,6.55
2022-11-11T11:13:29.645Z,7.90
2022-11-11T11:16:15.127Z,5.20
2022-11-11T11:18:43.576Z,7.40
2022-11-11T11:21:10.851Z,3.80
2022-11-11T11:23:37.985Z,3.60
2022-11-11T11:26:05.367Z,3.65
2022-11-11T11:28:32.617Z,3.50
2022-11-11T11:31:00.424Z,3.90
2022-11-11T11:33:27.574Z,3.60
2022-11-11T11:35:54.707Z,3.38
2022-11-11T11:38:22.438Z,3.92
2022-11-11T11:40:53.692Z,4.60
2022-11-11T11:43:34.628Z,3.55
2022-11-11T11:46:21.732Z,6.70
2022-11-11T11:48:49.083Z,2.95
2022-11-11T11:51:30.073Z,5.50
2022-11-11T11:54:17.454Z,2.83
2022-11-11T11:56:49.117Z,6.93
2022-11-11T11:59:23.837Z,3.88
2022-11-11T12:01:52.120Z,3.20
2022-11-11T12:04:22.378Z,5.03
2022-11-11T12:06:51.927Z,3.35
2022-11-11T12:09:31.412Z,3.45
2022-11-11T12:12:16.112Z,6.20
2022-11-11T12:14:53.211Z,4.93
2022-11-11T12:17:23.377Z,4.18
2022-11-11T12:19:50.484Z,14.70
2022-11-11T12:22:17.565Z,17.45
2022-11-11T12:24:50.656Z,3.75
2022-11-11T12:27:20.809Z,2.55
2022-11-11T12:30:08.188Z,6.15
2022-11-11T12:32:48.549Z,2.55
2022-11-11T12:35:35.156Z,4.25
2022-11-11T12:38:05.400Z,6.00
2022-11-11T12:40:57.183Z,72.47
2022-11-11T12:43:27.575Z,6.55
2022-11-11T12:46:13.675Z,5.22
2022-11-11T12:48:46.883Z,3.10
2022-11-11T12:51:21.904Z,15.13
2022-11-11T12:54:03.936Z,4.07
2022-11-11T12:56:33.939Z,79.55
2022-11-11T12:59:06.876Z,39.88
2022-11-11T13:01:38.517Z,14.63
2022-11-11T13:04:23.992Z,6.78
2022-11-11T13:07:18.377Z,7.57
2022-11-11T13:10:04.480Z,4.30
2022-11-11T13:12:37.651Z,4.95
2022-11-11T13:15:17.989Z,11.13
2022-11-11T13:17:45.115Z,10.55
2022-11-11T13:20:15.286Z,7.55
2022-11-11T13:22:42.379Z,7.60
2022-11-11T13:25:15.495Z,6.57
2022-11-11T13:27:44.185Z,9.25
2022-11-11T13:30:30.153Z,5.22
2022-11-11T13:33:01.139Z,5.53
2022-11-11T13:35:28.284Z,10.55
2022-11-11T13:37:55.426Z,8.40
2022-11-11T13:40:44.652Z,10.20
2022-11-11T13:43:23.075Z,14.00
2022-11-11T13:45:51.522Z,16.30
2022-11-11T13:48:19.983Z,19.30
2022-11-11T13:50:47.124Z,9.88
2022-11-11T13:53:15.651Z,6.03
2022-11-11T13:55:43.817Z,7.15
2022-11-11T13:58:43.314Z,34.17
2022-11-11T14:01:11.011Z,22.55
2022-11-11T14:03:58.853Z,39.35
2022-11-11T14:06:28.718Z,39.00
2022-11-11T14:08:55.912Z,30.05
2022-11-11T14:11:26.507Z,13.63
2022-11-11T14:14:00.105Z,18.90
2022-11-11T14:16:36.567Z,49.15
2022-11-11T14:19:21.779Z,53.75
2022-11-11T14:21:58.836Z,47.75
2022-11-11T14:24:46.027Z,39.10
2022-11-11T14:27:13.665Z,16.55
2022-11-11T14:29:52.342Z,9.43
2022-11-11T14:32:20.325Z,22.63
2022-11-11T14:34:51.069Z,31.13
2022-11-11T14:37:29.428Z,29.75
2022-11-11T14:39:56.944Z,22.33
2022-11-11T14:42:36.374Z,23.75
2022-11-11T14:45:03.762Z,19.88
2022-11-11T14:47:33.660Z,20.23
2022-11-11T14:50:00.950Z,13.10
2022-11-11T14:52:40.645Z,16.55
2022-11-11T14:55:17.036Z,11.18
2022-11-11T14:57:50.724Z,11.88
2022-11-11T15:00:20.947Z,43.25
2022-11-11T15:03:04.838Z,11.55
2022-11-11T15:05:42.569Z,6.25
2022-11-11T15:08:15.780Z,133.85
2022-11-11T15:10:53.815Z,112.60
2022-11-11T15:13:36.559Z,53.58
2022-11-11T15:16:13.305Z,28.48
2022-11-11T15:18:52.789Z,34.70
2022-11-11T15:21:31.895Z,125.43
2022-11-11T15:24:16.102Z,117.63
2022-11-11T15:26:46.301Z,81.05
2022-11-11T15:29:20.881Z,79.97
2022-11-11T15:31:52.145Z,56.00
2022-11-11T15:34:25.400Z,53.55
2022-11-11T15:36:56.847Z,97.68
2022-11-11T15:39:25.434Z,75.25
2022-11-11T15:41:53.319Z,71.40
2022-11-11T15:44:25.278Z,42.58
2022-11-11T15:46:53.425Z,35.85
2022-11-11T15:49:38.809Z,39.17
2022-11-11T15:52:07.226Z,48.17
2022-11-11T15:54:35.289Z,62.72
2022-11-11T15:57:21.027Z,132.93
2022-11-11T15:59:48.286Z,69.60
2022-11-11T16:02:17.240Z,81.55
2022-11-11T16:04:55.351Z,97.00
2022-11-11T16:07:24.694Z,76.25
2022-11-11T16:09:52.022Z,91.20
2022-11-11T16:12:20.193Z,89.10
2022-11-11T16:14:47.647Z,80.65
2022-11-11T16:17:14.820Z,69.13
2022-11-11T16:19:47.836Z,48.63
2022-11-11T16:22:16.147Z,100.07
2022-11-11T16:24:45.149Z,91.85
2022-11-11T16:27:13.605Z,129.13
2022-11-11T16:29:41.106Z,175.98
2022-11-11T16:32:26.830Z,239.05
2022-11-11T16:34:54.308Z,262.67
2022-11-11T16:37:21.855Z,191.00
2022-11-11T16:39:48.937Z,132.57
2022-11-11T16:42:21.727Z,89.68
2022-11-11T16:44:58.912Z,84.75
2022-11-11T16:47:29.045Z,105.10
2022-11-11T16:50:01.929Z,152.23
2022-11-11T16:52:29.061Z,187.82
2022-11-11T16:54:57.013Z,196.32
2022-11-11T16:57:25.353Z,196.30
2022-11-11T16:59:53.848Z,240.95
2022-11-11T17:02:21.815Z,182.27
2022-11-11T17:04:55.810Z,136.65
2022-11-11T17:07:32.023Z,125.45
2022-11-11T17:10:12.468Z,105.30
2022-11-11T17:12:39.798Z,102.63
2022-11-11T17:15:10.544Z,98.88
2022-11-11T17:17:37.879Z,96.82
2022-11-11T17:20:06.008Z,92.45
2022-11-11T17:22:33.105Z,91.07
2022-11-11T17:25:00.201Z,80.93
2022-11-11T17:27:30.005Z,77.93
2022-11-11T17:29:57.156Z,84.43
2022-11-11T17:32:24.437Z,84.10
2022-11-11T17:34:51.534Z,82.88
2022-11-11T17:37:18.698Z,75.65
2022-11-11T17:39:46.136Z,75.35
2022-11-11T17:42:14.062Z,63.47
2022-11-11T17:44:41.162Z,93.15
2022-11-11T17:47:08.279Z,106.78
2022-11-11T17:49:55.623Z,154.90
2022-11-11T17:52:22.617Z,133.82
2022-11-11T17:54:49.724Z,125.38
2022-11-11T17:57:16.965Z,105.25
2022-11-11T17:59:44.129Z,119.13
2022-11-11T18:02:14.145Z,109.28
2022-11-11T18:04:41.758Z,95.82
2022-11-11T18:07:09.128Z,79.30
2022-11-11T18:09:36.406Z,72.93
2022-11-11T18:12:03.588Z,79.20
2022-11-11T18:14:30.693Z,152.30
2022-11-11T18:16:57.808Z,96.43
2022-11-11T18:19:24.882Z,85.90
2022-11-11T18:21:51.996Z,104.05
2022-11-11T18:24:19.074Z,108.13
2022-11-11T18:26:46.171Z,103.72
2022-11-11T18:29:13.297Z,91.90
2022-11-11T18:31:40.411Z,105.78
2022-11-11T18:34:07.553Z,97.90
2022-11-11T18:36:34.657Z,70.15
2022-11-11T18:39:01.794Z,67.65
2022-11-11T18:41:28.873Z,51.75
2022-11-11T18:43:57.731Z,58.65
2022-11-11T18:46:25.583Z,67.85
2022-11-11T18:48:56.006Z,59.88
2022-11-11T18:51:23.789Z,58.28
2022-11-11T18:53:50.971Z,62.85
2022-11-11T18:56:18.848Z,56.85
2022-11-11T18:58:52.697Z,54.97
2022-11-11T19:01:27.202Z,55.83
2022-11-11T19:03:55.563Z,70.40
2022-11-11T19:06:22.681Z,70.93
2022-11-11T19:08:50.126Z,68.50
2022-11-11T19:11:17.242Z,83.55
2022-11-11T19:13:44.311Z,109.78
2022-11-11T19:16:12.532Z,84.30
2022-11-11T19:18:40.993Z,96.22
2022-11-11T19:21:11.787Z,85.72
2022-11-11T19:23:39.029Z,92.27
2022-11-11T19:26:06.349Z,91.13
2022-11-11T19:28:33.577Z,84.78
2022-11-11T19:31:04.585Z,85.80
2022-11-11T19:33:33.025Z,87.57
2022-11-11T19:36:00.660Z,89.00
2022-11-11T19:38:27.753Z,78.45
2022-11-11T19:40:54.914Z,71.57
2022-11-11T19:43:22.131Z,73.65
2022-11-11T19:45:49.267Z,167.82
2022-11-11T19:48:16.425Z,135.98
2022-11-11T19:50:43.632Z,90.27
2022-11-11T19:53:13.908Z,82.73
2022-11-11T19:55:41.415Z,101.78
2022-11-11T19:58:08.592Z,100.63
2022-11-11T20:00:35.808Z,84.10
2022-11-11T20:03:04.477Z,52.20
2022-11-11T20:05:31.820Z,42.30
2022-11-11T20:08:00.378Z,54.83
2022-11-11T20:10:27.509Z,71.97
2022-11-11T20:12:54.654Z,66.97
2022-11-11T20:15:21.788Z,77.93
2022-11-11T20:17:48.910Z,86.07
2022-11-11T20:20:16.151Z,86.32
2022-11-11T20:22:43.381Z,90.17
2022-11-11T20:25:10.590Z,90.60
2022-11-11T20:27:37.687Z,74.87
2022-11-11T20:30:05.274Z,69.40
2022-11-11T20:32:33.346Z,57.70
2022-11-11T20:35:00.432Z,67.05
2022-11-11T20:37:28.807Z,88.38
2022-11-11T20:39:55.934Z,69.03
2022-11-11T20:42:23.017Z,64.53
2022-11-11T20:44:50.112Z,78.93
2022-11-11T20:47:17.242Z,74.60
2022-11-11T20:49:44.426Z,53.45
2022-11-11T20:52:12.424Z,46.58
2022-11-11T20:54:39.867Z,49.95
2022-11-11T20:57:07.047Z,68.95
2022-11-11T20:59:34.189Z,69.30
2022-11-11T21:02:01.395Z,67.53
2022-11-11T21:04:28.496Z,68.82
2022-11-11T21:07:14.089Z,68.22
2022-11-11T21:09:41.209Z,63.92
2022-11-11T21:12:08.317Z,68.82
2022-11-11T21:14:35.515Z,73.87
2022-11-11T21:17:02.656Z,71.77
2022-11-11T21:19:29.732Z,74.13
2022-11-11T21:21:56.848Z,81.72
2022-11-11T21:24:23.915Z,64.07
2022-11-11T21:26:51.846Z,62.33
2022-11-11T21:29:19.103Z,63.03
2022-11-11T21:31:46.200Z,57.30
2022-11-11T21:34:13.459Z,54.60
2022-11-11T21:36:43.562Z,50.17
2022-11-11T21:39:10.751Z,48.43
2022-11-11T21:41:38.625Z,47.33
2022-11-11T21:44:06.148Z,44.13
2022-11-11T21:46:34.513Z,45.53
2022-11-11T21:49:01.869Z,47.33
2022-11-11T21:51:29.806Z,50.30
2022-11-11T21:54:02.230Z,48.73
2022-11-11T21:56:39.744Z,52.37
2022-11-11T21:59:07.211Z,38.07
2022-11-11T22:01:34.416Z,41.83
2022-11-11T22:04:02.797Z,43.10
2022-11-11T22:06:30.069Z,55.20
2022-11-11T22:08:57.476Z,53.65
2022-11-11T22:11:25.522Z,49.55
2022-11-11T22:13:52.682Z,46.30
2022-11-11T22:16:29.511Z,51.00
2022-11-11T22:18:57.416Z,48.47
2022-11-11T22:21:26.613Z,48.43
2022-11-11T22:23:57.584Z,46.80
2022-11-11T22:26:25.420Z,44.85
2022-11-11T22:28:54.581Z,44.93
2022-11-11T22:31:26.134Z,45.03
2022-11-11T22:33:56.937Z,47.90
2022-11-11T22:36:24.088Z,48.20
2022-11-11T22:38:51.227Z,45.97
2022-11-11T22:41:19.142Z,48.72
2022-11-11T22:43:59.286Z,44.27
2022-11-11T22:46:27.542Z,40.33
2022-11-11T22:48:55.480Z,42.70
2022-11-11T22:51:22.734Z,46.17
2022-11-11T22:53:49.844Z,37.70
2022-11-11T22:56:17.982Z,42.60
2022-11-11T22:58:45.666Z,45.10
2022-11-11T23:01:13.541Z,37.73
2022-11-11T23:03:44.111Z,32.90
2022-11-11T23:06:15.255Z,36.03
2022-11-11T23:08:42.535Z,36.50
2022-11-11T23:11:13.398Z,34.27
2022-11-11T23:13:40.765Z,36.13
2022-11-11T23:16:08.228Z,51.47
2022-11-11T23:18:35.313Z,38.63
2022-11-11T23:21:03.293Z,40.90
2022-11-11T23:23:30.508Z,168.77
2022-11-11T23:26:02.384Z,44.07
2022-11-11T23:28:29.509Z,101.47
2022-11-11T23:31:06.908Z,49.10
2022-11-11T23:33:34.224Z,42.00
2022-11-11T23:36:01.716Z,42.20
2022-11-11T23:38:29.092Z,123.90
2022-11-11T23:40:56.369Z,83.97
2022-11-11T23:43:23.854Z,41.53
2022-11-11T23:45:55.896Z,39.83
2022-11-11T23:48:24.630Z,66.27
2022-11-11T23:50:52.027Z,48.17
2022-11-11T23:53:19.179Z,36.53
2022-11-11T23:55:46.331Z,37.97
2022-11-11T23:58:13.453Z,39.33
